< < Back
Terminal Aerodrome Forecast


Current Version              Previous Versions:   1  2  3  4  5  6  7  8  9  

Terminal Aerodrome Forecast

714
FTUS42 KGSP 300100 AAA
TAFCLT
TAF AMD
KCLT 300137Z 3002/3024 09006KT P6SM FEW060 SCT250
     FM301000 00000KT 5SM BR SCT015
     FM301300 00000KT P6SM FEW040
     FM301900 16006KT P6SM FEW060=



Latest METAR

112
SAUS70 KWBC 301400 RRA
MTRCLT
METAR KCLT 301352Z VRB03KT 10SM FEW060 26/21 A3022 RMK AO2 SLP225
T02610211 $


USA.gov is the U.S. government's official web portal to all federal, state and local government web resources and services.